sensor_id;sensor_type;location;lat;lon;timestamp;temperature;humidity
18266;DHT22;9259;48.194;16.322;2023-03-21T13:21:35;5.10;99.90
18266;DHT22;9259;48.194;16.322;2023-03-21T13:24:22;19.30;87.40
18266;DHT22;9259;48.194;16.322;2023-03-21T13:26:58;18.90;87.70
18266;DHT22;9259;48.194;16.322;2023-03-21T13:29:33;18.60;88.10
18266;DHT22;9259;48.194;16.322;2023-03-21T13:32:15;18.40;88.40
18266;DHT22;9259;48.194;16.322;2023-03-21T13:34:53;18.20;88.90
18266;DHT22;9259;48.194;16.322;2023-03-21T13:37:25;18.00;89.50
18266;DHT22;9259;48.194;16.322;2023-03-21T13:40:00;17.90;89.30
18266;DHT22;9259;48.194;16.322;2023-03-21T13:42:35;17.90;89.70
18266;DHT22;9259;48.194;16.322;2023-03-21T13:45:21;17.80;89.90
18266;DHT22;9259;48.194;16.322;2023-03-21T13:47:53;17.80;90.20
18266;DHT22;9259;48.194;16.322;2023-03-21T13:50:50;17.70;90.30
18266;DHT22;9259;48.194;16.322;2023-03-21T13:53:26;17.70;90.30
18266;DHT22;9259;48.194;16.322;2023-03-21T14:14:00;17.80;90.30
18266;DHT22;9259;48.194;16.322;2023-03-21T14:16:31;18.00;90.10
18266;DHT22;9259;48.194;16.322;2023-03-21T14:19:01;18.30;89.90
18266;DHT22;9259;48.194;16.322;2023-03-21T14:21:32;18.10;89.80
18266;DHT22;9259;48.194;16.322;2023-03-21T14:24:02;17.80;90.00
18266;DHT22;9259;48.194;16.322;2023-03-21T14:26:33;17.80;89.90
18266;DHT22;9259;48.194;16.322;2023-03-21T14:29:04;17.90;90.00
18266;DHT22;9259;48.194;16.322;2023-03-21T14:31:34;17.70;90.30
18266;DHT22;9259;48.194;16.322;2023-03-21T14:34:03;17.70;90.60
18266;DHT22;9259;48.194;16.322;2023-03-21T14:36:33;17.60;90.90
18266;DHT22;9259;48.194;16.322;2023-03-21T14:39:12;17.40;90.80
18266;DHT22;9259;48.194;16.322;2023-03-21T14:41:45;17.40;90.90
18266;DHT22;9259;48.194;16.322;2023-03-21T14:44:20;17.30;91.00
18266;DHT22;9259;48.194;16.322;2023-03-21T14:46:59;17.50;90.90
18266;DHT22;9259;48.194;16.322;2023-03-21T14:49:29;17.60;90.90
18266;DHT22;9259;48.194;16.322;2023-03-21T14:52:00;17.70;90.90
18266;DHT22;9259;48.194;16.322;2023-03-21T14:54:29;17.70;90.90
18266;DHT22;9259;48.194;16.322;2023-03-21T14:57:00;17.80;91.10
18266;DHT22;9259;48.194;16.322;2023-03-21T14:59:33;17.80;91.20
18266;DHT22;9259;48.194;16.322;2023-03-21T15:02:05;17.80;91.40
18266;DHT22;9259;48.194;16.322;2023-03-21T15:04:47;17.70;91.40
18266;DHT22;9259;48.194;16.322;2023-03-21T15:07:26;17.50;91.50
18266;DHT22;9259;48.194;16.322;2023-03-21T15:09:57;17.50;91.60
18266;DHT22;9259;48.194;16.322;2023-03-21T15:12:26;17.50;91.70
18266;DHT22;9259;48.194;16.322;2023-03-21T15:14:54;17.40;91.60
18266;DHT22;9259;48.194;16.322;2023-03-21T15:17:24;17.40;91.70
18266;DHT22;9259;48.194;16.322;2023-03-21T15:19:53;17.40;91.90
18266;DHT22;9259;48.194;16.322;2023-03-21T15:22:26;17.40;91.90
18266;DHT22;9259;48.194;16.322;2023-03-21T15:24:58;17.60;91.90
18266;DHT22;9259;48.194;16.322;2023-03-21T15:27:32;17.50;91.90
18266;DHT22;9259;48.194;16.322;2023-03-21T15:30:02;17.40;92.10
18266;DHT22;9259;48.194;16.322;2023-03-21T15:32:34;17.20;92.30
18266;DHT22;9259;48.194;16.322;2023-03-21T15:35:06;17.30;92.30
18266;DHT22;9259;48.194;16.322;2023-03-21T15:37:38;17.20;92.40
18266;DHT22;9259;48.194;16.322;2023-03-21T15:40:09;17.30;92.40
18266;DHT22;9259;48.194;16.322;2023-03-21T15:42:43;17.40;92.30
18266;DHT22;9259;48.194;16.322;2023-03-21T15:45:19;17.40;92.10
18266;DHT22;9259;48.194;16.322;2023-03-21T15:47:53;17.30;92.30
18266;DHT22;9259;48.194;16.322;2023-03-21T15:50:26;17.20;92.40
18266;DHT22;9259;48.194;16.322;2023-03-21T15:53:00;17.10;92.50
18266;DHT22;9259;48.194;16.322;2023-03-21T15:55:33;17.10;92.70
18266;DHT22;9259;48.194;16.322;2023-03-21T15:58:10;17.20;92.70
18266;DHT22;9259;48.194;16.322;2023-03-21T16:00:46;17.10;92.70
18266;DHT22;9259;48.194;16.322;2023-03-21T16:03:20;17.10;92.80
18266;DHT22;9259;48.194;16.322;2023-03-21T16:06:05;17.10;92.70
18266;DHT22;9259;48.194;16.322;2023-03-21T16:08:35;17.10;92.80
18266;DHT22;9259;48.194;16.322;2023-03-21T16:11:08;17.00;92.90
18266;DHT22;9259;48.194;16.322;2023-03-21T16:13:42;17.10;92.80
18266;DHT22;9259;48.194;16.322;2023-03-21T16:16:16;17.00;92.70
18266;DHT22;9259;48.194;16.322;2023-03-21T16:18:47;17.00;92.90
18266;DHT22;9259;48.194;16.322;2023-03-21T16:21:19;17.10;92.80
18266;DHT22;9259;48.194;16.322;2023-03-21T16:23:48;17.10;92.80
18266;DHT22;9259;48.194;16.322;2023-03-21T16:26:19;17.10;92.70
18266;DHT22;9259;48.194;16.322;2023-03-21T16:28:48;17.10;92.80
18266;DHT22;9259;48.194;16.322;2023-03-21T16:31:20;17.00;92.90
18266;DHT22;9259;48.194;16.322;2023-03-21T16:33:51;17.00;92.90
18266;DHT22;9259;48.194;16.322;2023-03-21T16:36:22;17.00;92.90
18266;DHT22;9259;48.194;16.322;2023-03-21T16:38:52;16.80;92.80
18266;DHT22;9259;48.194;16.322;2023-03-21T16:41:21;16.80;92.80
18266;DHT22;9259;48.194;16.322;2023-03-21T16:43:50;16.70;92.80
18266;DHT22;9259;48.194;16.322;2023-03-21T16:46:21;16.80;92.80
18266;DHT22;9259;48.194;16.322;2023-03-21T16:48:52;16.70;92.80
18266;DHT22;9259;48.194;16.322;2023-03-21T16:51:23;16.60;92.80
18266;DHT22;9259;48.194;16.322;2023-03-21T16:53:55;16.50;92.90
18266;DHT22;9259;48.194;16.322;2023-03-21T16:56:26;16.40;93.00
18266;DHT22;9259;48.194;16.322;2023-03-21T16:58:56;16.40;93.10
18266;DHT22;9259;48.194;16.322;2023-03-21T17:01:25;16.40;93.10
18266;DHT22;9259;48.194;16.322;2023-03-21T17:03:56;16.20;93.30
18266;DHT22;9259;48.194;16.322;2023-03-21T17:06:26;16.20;93.30
18266;DHT22;9259;48.194;16.322;2023-03-21T17:08:57;16.20;93.40
18266;DHT22;9259;48.194;16.322;2023-03-21T17:11:27;16.10;93.50
18266;DHT22;9259;48.194;16.322;2023-03-21T17:14:01;16.00;93.60
18266;DHT22;9259;48.194;16.322;2023-03-21T17:16:29;16.00;93.70
18266;DHT22;9259;48.194;16.322;2023-03-21T17:18:59;15.90;93.80
18266;DHT22;9259;48.194;16.322;2023-03-21T17:21:28;15.80;94.00
18266;DHT22;9259;48.194;16.322;2023-03-21T17:23:57;15.70;94.10
18266;DHT22;9259;48.194;16.322;2023-03-21T17:26:26;15.70;94.20
18266;DHT22;9259;48.194;16.322;2023-03-21T17:28:55;15.60;94.20
18266;DHT22;9259;48.194;16.322;2023-03-21T17:31:26;15.60;94.50
18266;DHT22;9259;48.194;16.322;2023-03-21T17:33:57;15.50;94.60
18266;DHT22;9259;48.194;16.322;2023-03-21T17:36:31;15.50;94.70
18266;DHT22;9259;48.194;16.322;2023-03-21T17:39:02;15.50;94.80
18266;DHT22;9259;48.194;16.322;2023-03-21T17:41:33;15.30;95.40
18266;DHT22;9259;48.194;16.322;2023-03-21T17:44:02;15.20;95.30
18266;DHT22;9259;48.194;16.322;2023-03-21T17:46:34;15.20;95.60
18266;DHT22;9259;48.194;16.322;2023-03-21T17:49:05;15.10;95.90
18266;DHT22;9259;48.194;16.322;2023-03-21T17:51:35;15.00;95.80
18266;DHT22;9259;48.194;16.322;2023-03-21T17:54:04;14.90;96.00
18266;DHT22;9259;48.194;16.322;2023-03-21T17:56:34;14.80;96.00
18266;DHT22;9259;48.194;16.322;2023-03-21T17:59:07;14.80;96.10
18266;DHT22;9259;48.194;16.322;2023-03-21T18:01:40;14.70;96.10
18266;DHT22;9259;48.194;16.322;2023-03-21T18:04:09;14.70;96.20
18266;DHT22;9259;48.194;16.322;2023-03-21T18:06:38;14.70;96.20
18266;DHT22;9259;48.194;16.322;2023-03-21T18:09:07;14.70;96.30
18266;DHT22;9259;48.194;16.322;2023-03-21T18:11:38;14.70;96.20
18266;DHT22;9259;48.194;16.322;2023-03-21T18:14:07;14.60;96.40
18266;DHT22;9259;48.194;16.322;2023-03-21T18:16:36;14.60;96.60
18266;DHT22;9259;48.194;16.322;2023-03-21T18:19:05;14.50;96.80
18266;DHT22;9259;48.194;16.322;2023-03-21T18:21:35;14.50;96.80
18266;DHT22;9259;48.194;16.322;2023-03-21T18:24:06;14.40;96.90
18266;DHT22;9259;48.194;16.322;2023-03-21T18:26:38;14.30;97.00
18266;DHT22;9259;48.194;16.322;2023-03-21T18:29:06;14.40;97.10
18266;DHT22;9259;48.194;16.322;2023-03-21T18:31:35;14.30;97.10
18266;DHT22;9259;48.194;16.322;2023-03-21T18:34:04;14.20;97.10
18266;DHT22;9259;48.194;16.322;2023-03-21T18:36:34;14.20;97.20
18266;DHT22;9259;48.194;16.322;2023-03-21T18:39:03;14.20;97.30
18266;DHT22;9259;48.194;16.322;2023-03-21T18:41:33;14.10;97.60
18266;DHT22;9259;48.194;16.322;2023-03-21T18:44:02;14.00;97.80
18266;DHT22;9259;48.194;16.322;2023-03-21T18:46:31;13.90;98.10
18266;DHT22;9259;48.194;16.322;2023-03-21T18:49:01;13.90;98.30
18266;DHT22;9259;48.194;16.322;2023-03-21T18:51:31;13.90;98.50
18266;DHT22;9259;48.194;16.322;2023-03-21T18:54:03;13.80;98.70
18266;DHT22;9259;48.194;16.322;2023-03-21T18:56:34;13.80;99.00
18266;DHT22;9259;48.194;16.322;2023-03-21T18:59:04;13.60;99.40
18266;DHT22;9259;48.194;16.322;2023-03-21T19:01:34;13.60;99.40
18266;DHT22;9259;48.194;16.322;2023-03-21T19:04:04;13.50;99.90
18266;DHT22;9259;48.194;16.322;2023-03-21T19:06:33;13.40;99.90
18266;DHT22;9259;48.194;16.322;2023-03-21T19:09:03;13.10;99.90
18266;DHT22;9259;48.194;16.322;2023-03-21T19:11:32;13.30;99.90
18266;DHT22;9259;48.194;16.322;2023-03-21T19:14:02;13.30;99.90
18266;DHT22;9259;48.194;16.322;2023-03-21T19:16:32;13.20;99.90
18266;DHT22;9259;48.194;16.322;2023-03-21T19:19:03;13.10;99.90
18266;DHT22;9259;48.194;16.322;2023-03-21T19:21:33;13.10;99.90
18266;DHT22;9259;48.194;16.322;2023-03-21T19:24:05;13.10;99.90
18266;DHT22;9259;48.194;16.322;2023-03-21T19:26:35;13.10;99.90
18266;DHT22;9259;48.194;16.322;2023-03-21T19:29:05;13.10;99.90
18266;DHT22;9259;48.194;16.322;2023-03-21T19:31:35;13.00;99.90
18266;DHT22;9259;48.194;16.322;2023-03-21T19:34:05;12.90;99.90
18266;DHT22;9259;48.194;16.322;2023-03-21T19:36:34;12.90;99.90
18266;DHT22;9259;48.194;16.322;2023-03-21T19:39:06;12.80;99.90
18266;DHT22;9259;48.194;16.322;2023-03-21T19:41:35;12.80;99.90
18266;DHT22;9259;48.194;16.322;2023-03-21T19:44:05;12.70;99.90
18266;DHT22;9259;48.194;16.322;2023-03-21T19:46:35;12.70;99.90
18266;DHT22;9259;48.194;16.322;2023-03-21T19:49:06;12.60;99.90
18266;DHT22;9259;48.194;16.322;2023-03-21T19:51:42;12.50;99.90
18266;DHT22;9259;48.194;16.322;2023-03-21T19:54:13;12.50;99.90
18266;DHT22;9259;48.194;16.322;2023-03-21T19:56:44;12.50;99.90
18266;DHT22;9259;48.194;16.322;2023-03-21T19:59:15;12.40;99.90
